createdAt,value
2018-12-20T00:01:32.332Z,5.60
2018-12-20T00:04:00.986Z,5.60
2018-12-20T00:06:29.426Z,5.60
2018-12-20T00:08:58.675Z,5.60
2018-12-20T00:11:27.863Z,5.60
2018-12-20T00:13:56.625Z,5.50
2018-12-20T00:16:25.010Z,5.50
2018-12-20T00:18:53.327Z,5.50
2018-12-20T00:21:21.489Z,5.50
2018-12-20T00:23:49.986Z,5.50
2018-12-20T00:26:18.125Z,5.50
2018-12-20T00:28:46.420Z,5.50
2018-12-20T00:31:16.426Z,5.50
2018-12-20T00:33:44.533Z,5.50
2018-12-20T00:36:12.724Z,5.50
2018-12-20T00:38:41.880Z,5.50
2018-12-20T00:41:10.635Z,5.50
2018-12-20T00:43:38.977Z,5.50
2018-12-20T00:46:07.119Z,5.50
2018-12-20T00:48:36.084Z,5.40
2018-12-20T00:51:04.473Z,5.50
2018-12-20T00:53:32.955Z,5.50
2018-12-20T00:56:01.687Z,5.50
2018-12-20T00:58:30.141Z,5.50
2018-12-20T01:00:58.717Z,5.60
2018-12-20T01:03:26.895Z,5.60
2018-12-20T01:05:55.174Z,5.60
2018-12-20T01:08:23.803Z,5.60
2018-12-20T01:10:52.159Z,5.60
2018-12-20T01:13:20.468Z,5.50
2018-12-20T01:15:49.394Z,5.50
2018-12-20T01:18:18.219Z,5.60
2018-12-20T01:20:46.704Z,5.60
2018-12-20T01:23:15.080Z,5.50
2018-12-20T01:25:43.353Z,5.50
2018-12-20T01:28:11.826Z,5.50
2018-12-20T01:30:40.029Z,5.40
2018-12-20T01:33:08.080Z,5.30
2018-12-20T01:35:36.144Z,5.10
2018-12-20T01:38:04.959Z,5.10
2018-12-20T01:40:33.260Z,5.10
2018-12-20T01:43:01.646Z,5.10
2018-12-20T01:45:30.194Z,5.20
2018-12-20T01:47:58.737Z,5.20
2018-12-20T01:50:27.205Z,5.20
2018-12-20T01:52:55.519Z,5.20
2018-12-20T01:55:23.949Z,5.20
2018-12-20T01:57:52.286Z,5.20
2018-12-20T02:00:20.546Z,5.20
2018-12-20T02:02:48.868Z,5.20
2018-12-20T02:05:17.383Z,5.10
2018-12-20T02:07:46.006Z,5.10
2018-12-20T02:10:14.850Z,5.10
2018-12-20T02:12:44.155Z,5.00
2018-12-20T02:15:13.166Z,5.00
2018-12-20T02:17:43.279Z,5.10
2018-12-20T02:20:16.646Z,5.10
2018-12-20T02:22:51.409Z,5.10
2018-12-20T02:25:21.211Z,5.10
2018-12-20T02:27:50.525Z,5.10
2018-12-20T02:30:20.761Z,5.20
2018-12-20T02:32:49.953Z,5.20
2018-12-20T02:35:19.106Z,5.30
2018-12-20T02:37:48.578Z,5.40
2018-12-20T02:40:18.489Z,5.40
2018-12-20T02:42:47.483Z,5.30
2018-12-20T02:45:16.726Z,5.20
2018-12-20T02:47:45.948Z,5.20
2018-12-20T02:50:15.442Z,5.10
2018-12-20T02:52:44.794Z,5.00
2018-12-20T02:55:14.389Z,5.00
2018-12-20T02:57:43.406Z,5.00
2018-12-20T03:00:12.941Z,5.00
2018-12-20T03:02:41.882Z,4.90
2018-12-20T03:05:10.628Z,4.90
2018-12-20T03:07:39.459Z,4.70
2018-12-20T03:10:08.291Z,4.70
2018-12-20T03:12:37.470Z,4.80
2018-12-20T03:15:06.399Z,4.80
2018-12-20T03:17:34.994Z,4.90
2018-12-20T03:20:03.998Z,4.90
2018-12-20T03:22:32.444Z,4.90
2018-12-20T03:25:00.754Z,4.90
2018-12-20T03:27:29.119Z,5.00
2018-12-20T03:29:57.657Z,4.90
2018-12-20T03:32:25.932Z,4.80
2018-12-20T03:34:54.120Z,4.70
2018-12-20T03:37:22.663Z,4.60
2018-12-20T03:39:51.032Z,4.50
2018-12-20T03:42:19.868Z,4.40
2018-12-20T03:44:48.512Z,4.20
2018-12-20T03:47:16.810Z,4.00
2018-12-20T03:49:44.962Z,3.90
2018-12-20T03:52:13.277Z,3.80
2018-12-20T03:54:41.837Z,3.80
2018-12-20T03:57:10.215Z,3.90
2018-12-20T03:59:38.860Z,3.80
2018-12-20T04:02:07.348Z,3.90
2018-12-20T04:04:35.801Z,3.80
2018-12-20T04:07:04.071Z,3.80
2018-12-20T04:09:32.263Z,3.80
2018-12-20T04:12:00.731Z,3.90
2018-12-20T04:14:29.136Z,4.10
2018-12-20T04:16:57.745Z,4.20
2018-12-20T04:19:26.045Z,4.30
2018-12-20T04:21:54.583Z,4.40
2018-12-20T04:24:23.145Z,4.50
2018-12-20T04:26:51.847Z,4.60
2018-12-20T04:29:20.435Z,4.70
2018-12-20T04:31:49.439Z,4.70
2018-12-20T04:34:17.889Z,4.60
2018-12-20T04:36:46.099Z,4.60
2018-12-20T04:39:14.704Z,4.50
2018-12-20T04:41:42.983Z,4.50
2018-12-20T04:44:11.457Z,4.50
2018-12-20T04:46:39.915Z,4.60
2018-12-20T04:49:08.831Z,4.60
2018-12-20T04:51:37.669Z,4.70
2018-12-20T04:54:06.224Z,4.80
2018-12-20T04:56:34.340Z,4.80
2018-12-20T04:59:03.076Z,5.90
2018-12-20T05:01:31.412Z,4.90
2018-12-20T05:03:59.919Z,5.00
2018-12-20T05:06:29.246Z,5.10
2018-12-20T05:08:57.552Z,5.10
2018-12-20T05:11:26.893Z,5.10
2018-12-20T05:13:54.985Z,5.10
2018-12-20T05:16:23.635Z,5.10
2018-12-20T05:18:51.856Z,5.10
2018-12-20T05:21:20.262Z,5.10
2018-12-20T05:23:48.794Z,5.00
2018-12-20T05:26:17.306Z,5.00
2018-12-20T05:28:45.518Z,4.90
2018-12-20T05:31:13.626Z,5.00
2018-12-20T05:33:41.991Z,5.00
2018-12-20T05:36:10.325Z,5.10
2018-12-20T05:38:38.463Z,5.00
2018-12-20T05:41:07.648Z,5.10
2018-12-20T05:43:35.997Z,5.10
2018-12-20T05:46:04.733Z,5.80
2018-12-20T05:48:33.121Z,5.10
2018-12-20T05:51:01.729Z,5.10
2018-12-20T05:53:30.326Z,5.10
2018-12-20T05:55:58.999Z,5.10
2018-12-20T05:58:27.736Z,5.10
2018-12-20T06:00:56.406Z,5.00
2018-12-20T06:03:24.770Z,4.20
2018-12-20T06:05:53.062Z,5.10
2018-12-20T06:08:21.673Z,5.10
2018-12-20T06:10:49.980Z,5.20
2018-12-20T06:13:19.122Z,5.20
2018-12-20T06:15:48.163Z,5.10
2018-12-20T06:18:16.735Z,5.20
2018-12-20T06:20:45.109Z,5.20
2018-12-20T06:23:13.483Z,5.20
2018-12-20T06:25:41.731Z,5.20
2018-12-20T06:28:10.320Z,5.10
2018-12-20T06:30:38.529Z,5.20
2018-12-20T06:33:06.916Z,5.10
2018-12-20T06:35:35.625Z,5.20
2018-12-20T06:38:03.845Z,5.30
2018-12-20T06:40:32.003Z,5.30
2018-12-20T06:43:00.528Z,5.30
2018-12-20T06:45:28.589Z,5.20
2018-12-20T06:47:56.746Z,5.20
2018-12-20T06:50:24.933Z,5.20
2018-12-20T06:52:53.146Z,5.30
2018-12-20T06:55:21.512Z,5.30
2018-12-20T06:57:49.695Z,5.40
2018-12-20T07:00:18.267Z,5.40
2018-12-20T07:02:46.592Z,5.50
2018-12-20T07:05:16.033Z,5.50
2018-12-20T07:07:44.532Z,5.60
2018-12-20T07:10:13.175Z,5.60
2018-12-20T07:12:41.830Z,5.70
2018-12-20T07:15:10.140Z,5.60
2018-12-20T07:17:38.533Z,5.60
2018-12-20T07:20:07.000Z,5.60
2018-12-20T07:22:35.221Z,5.60
2018-12-20T07:25:03.935Z,5.60
2018-12-20T07:27:32.322Z,5.70
2018-12-20T07:30:00.613Z,5.80
2018-12-20T07:32:28.717Z,5.80
2018-12-20T07:34:57.297Z,5.80
2018-12-20T07:37:25.737Z,5.80
2018-12-20T07:39:54.054Z,5.80
2018-12-20T07:42:22.509Z,5.80
2018-12-20T07:44:50.587Z,5.80
2018-12-20T07:47:19.002Z,5.80
2018-12-20T07:49:47.375Z,5.70
2018-12-20T07:52:15.516Z,5.70
2018-12-20T07:54:43.883Z,5.70
2018-12-20T07:57:11.983Z,5.70
2018-12-20T07:59:40.601Z,5.80
2018-12-20T08:02:09.476Z,5.80
2018-12-20T08:04:37.704Z,5.80
2018-12-20T08:07:06.148Z,5.80
2018-12-20T08:09:34.471Z,5.90
2018-12-20T08:12:02.718Z,5.90
2018-12-20T08:14:31.058Z,6.00
2018-12-20T08:16:59.302Z,6.10
2018-12-20T08:19:36.019Z,6.10
2018-12-20T08:21:57.744Z,6.20
2018-12-20T08:24:26.254Z,6.20
2018-12-20T08:26:54.873Z,6.20
2018-12-20T08:29:23.250Z,6.30
2018-12-20T08:31:51.345Z,6.30
2018-12-20T08:34:19.570Z,6.30
2018-12-20T08:36:47.734Z,6.20
2018-12-20T08:39:16.163Z,6.30
2018-12-20T08:41:44.391Z,6.40
2018-12-20T08:44:13.175Z,6.40
2018-12-20T08:46:43.928Z,6.40
2018-12-20T08:49:12.287Z,6.40
2018-12-20T08:51:40.459Z,6.50
2018-12-20T08:54:09.000Z,6.50
2018-12-20T08:56:37.327Z,6.50
2018-12-20T08:59:05.700Z,6.50
2018-12-20T09:01:34.188Z,6.50
2018-12-20T09:04:02.432Z,6.60
2018-12-20T09:06:30.569Z,6.70
2018-12-20T09:08:58.755Z,6.80
2018-12-20T09:11:26.877Z,6.90
2018-12-20T09:13:55.132Z,7.10
2018-12-20T09:16:23.253Z,7.10
2018-12-20T09:18:51.624Z,7.20
2018-12-20T09:21:19.709Z,7.20
2018-12-20T09:23:47.967Z,7.20
2018-12-20T09:26:16.079Z,7.50
2018-12-20T09:28:44.227Z,8.10
2018-12-20T09:31:12.326Z,8.60
2018-12-20T09:33:40.414Z,8.70
2018-12-20T09:36:08.858Z,8.40
2018-12-20T09:38:37.487Z,8.10
2018-12-20T09:41:05.755Z,7.90
2018-12-20T09:43:34.107Z,7.80
2018-12-20T09:46:02.152Z,7.70
2018-12-20T09:48:30.287Z,7.80
2018-12-20T09:50:58.948Z,7.70
2018-12-20T09:53:27.169Z,7.70
2018-12-20T09:55:55.305Z,7.80
2018-12-20T09:58:23.468Z,7.90
2018-12-20T10:00:51.597Z,8.50
2018-12-20T10:03:19.732Z,9.00
2018-12-20T10:05:47.826Z,9.30
2018-12-20T10:08:16.107Z,9.40
2018-12-20T10:10:44.602Z,9.60
2018-12-20T10:13:12.722Z,9.80
2018-12-20T10:15:41.158Z,9.70
2018-12-20T10:18:09.341Z,9.30
2018-12-20T10:20:37.530Z,9.00
2018-12-20T10:23:05.708Z,8.80
2018-12-20T10:25:34.265Z,8.70
2018-12-20T10:28:02.882Z,8.50
2018-12-20T10:30:31.250Z,8.40
2018-12-20T10:32:59.566Z,8.40
2018-12-20T10:35:31.555Z,8.30
2018-12-20T10:38:00.554Z,8.40
2018-12-20T10:40:28.675Z,8.50
2018-12-20T10:42:56.791Z,8.60
2018-12-20T10:45:25.095Z,8.60
2018-12-20T10:47:53.361Z,8.50
2018-12-20T10:50:21.564Z,8.60
2018-12-20T10:52:49.693Z,8.50
2018-12-20T10:55:17.776Z,8.10
2018-12-20T10:57:46.067Z,8.40
2018-12-20T11:00:14.436Z,8.30
2018-12-20T11:02:48.852Z,8.20
2018-12-20T11:05:27.529Z,8.20
2018-12-20T11:07:56.402Z,8.10
2018-12-20T11:10:27.581Z,8.10
2018-12-20T11:12:56.514Z,8.10
2018-12-20T11:15:24.745Z,8.10
2018-12-20T11:17:53.120Z,8.10
2018-12-20T11:20:21.473Z,8.00
2018-12-20T11:22:50.229Z,8.00
2018-12-20T11:25:18.334Z,8.00
2018-12-20T11:27:46.901Z,7.90
2018-12-20T11:30:15.067Z,7.90
2018-12-20T11:32:43.323Z,7.90
2018-12-20T11:35:11.464Z,7.90
2018-12-20T11:37:39.588Z,7.80
2018-12-20T11:40:08.407Z,7.90
2018-12-20T11:42:36.696Z,7.90
2018-12-20T11:45:05.849Z,7.80
2018-12-20T11:47:34.012Z,7.80
2018-12-20T11:50:02.618Z,7.70
2018-12-20T11:52:30.948Z,7.70
2018-12-20T11:54:59.289Z,7.70
2018-12-20T11:57:27.618Z,7.70
2018-12-20T11:59:55.805Z,7.70
2018-12-20T12:02:24.584Z,7.70
2018-12-20T12:04:53.462Z,7.80
2018-12-20T12:07:22.143Z,7.90
2018-12-20T12:09:50.453Z,7.90
2018-12-20T12:12:18.670Z,7.90
2018-12-20T12:14:47.077Z,8.00
2018-12-20T12:17:15.282Z,8.00
2018-12-20T12:19:43.620Z,8.00
2018-12-20T12:22:12.053Z,8.10
2018-12-20T12:24:40.178Z,8.80
2018-12-20T12:27:08.283Z,8.20
2018-12-20T12:29:36.464Z,8.20
2018-12-20T12:32:04.688Z,8.30
2018-12-20T12:34:33.015Z,8.30
2018-12-20T12:37:01.358Z,8.40
2018-12-20T12:39:29.716Z,8.40
2018-12-20T12:41:57.951Z,8.40
2018-12-20T12:44:26.761Z,8.40
2018-12-20T12:46:55.611Z,8.40
2018-12-20T12:49:24.156Z,8.40
2018-12-20T12:51:53.209Z,8.40
2018-12-20T12:54:22.139Z,8.40
2018-12-20T12:56:50.330Z,8.40
2018-12-20T12:59:19.177Z,8.40
2018-12-20T13:01:48.486Z,8.40
2018-12-20T13:04:16.813Z,8.50
2018-12-20T13:06:45.338Z,8.50
2018-12-20T13:09:13.628Z,8.40
2018-12-20T13:11:42.020Z,8.50
2018-12-20T13:14:10.253Z,8.60
2018-12-20T13:16:38.561Z,8.70
2018-12-20T13:19:06.786Z,8.80
2018-12-20T13:21:34.954Z,8.90
2018-12-20T13:24:03.322Z,9.00
2018-12-20T13:26:31.527Z,9.20
2018-12-20T13:28:59.765Z,9.30
2018-12-20T13:31:27.963Z,9.40
2018-12-20T13:33:56.171Z,9.50
2018-12-20T13:36:24.403Z,9.50
2018-12-20T13:38:52.761Z,9.50
2018-12-20T13:41:21.071Z,9.50
2018-12-20T13:43:49.309Z,9.30
2018-12-20T13:46:17.650Z,9.20
2018-12-20T13:48:45.976Z,9.10
2018-12-20T13:51:14.237Z,9.00
2018-12-20T13:53:42.385Z,8.90
2018-12-20T13:56:10.544Z,8.80
2018-12-20T13:58:38.785Z,8.90
2018-12-20T14:01:07.254Z,8.90
2018-12-20T14:03:36.481Z,8.90
2018-12-20T14:06:04.713Z,8.80
2018-12-20T14:08:34.817Z,8.80
2018-12-20T14:11:03.555Z,8.60
2018-12-20T14:13:31.790Z,8.60
2018-12-20T14:16:00.230Z,8.60
2018-12-20T14:18:31.123Z,8.60
2018-12-20T14:20:58.860Z,8.60
2018-12-20T14:23:27.032Z,8.50
2018-12-20T14:25:55.495Z,8.50
2018-12-20T14:28:23.635Z,8.50
2018-12-20T14:30:52.028Z,8.50
2018-12-20T14:33:20.601Z,8.40
2018-12-20T14:35:49.279Z,8.40
2018-12-20T14:38:17.514Z,8.30
2018-12-20T14:40:45.754Z,8.10
2018-12-20T14:43:14.076Z,8.00
2018-12-20T14:45:43.144Z,7.90
2018-12-20T14:48:16.123Z,7.80
2018-12-20T14:50:44.303Z,7.90
2018-12-20T14:53:12.920Z,7.80
2018-12-20T14:55:41.074Z,7.90
2018-12-20T14:58:09.196Z,7.90
2018-12-20T15:00:37.496Z,8.00
2018-12-20T15:03:05.781Z,8.00
2018-12-20T15:05:34.233Z,8.00
2018-12-20T15:08:02.704Z,8.00
2018-12-20T15:10:30.765Z,8.10
2018-12-20T15:12:59.437Z,8.10
2018-12-20T15:15:27.785Z,8.10
2018-12-20T15:17:56.285Z,8.00
2018-12-20T15:20:24.903Z,6.90
2018-12-20T15:22:53.086Z,7.90
2018-12-20T15:25:21.573Z,7.80
2018-12-20T15:27:49.834Z,7.80
2018-12-20T15:30:18.575Z,7.70
2018-12-20T15:32:47.011Z,7.70
2018-12-20T15:35:15.417Z,7.60
2018-12-20T15:37:43.739Z,7.50
2018-12-20T15:40:12.434Z,7.40
2018-12-20T15:42:40.711Z,7.30
2018-12-20T15:45:09.056Z,7.20
2018-12-20T15:47:37.483Z,7.10
2018-12-20T15:50:07.778Z,7.00
2018-12-20T15:52:36.437Z,6.90
2018-12-20T15:55:06.141Z,6.80
2018-12-20T15:57:34.799Z,6.80
2018-12-20T16:00:03.748Z,6.70
2018-12-20T16:02:33.728Z,6.70
2018-12-20T16:05:01.934Z,6.70
2018-12-20T16:07:30.431Z,6.60
2018-12-20T16:09:58.573Z,6.50
2018-12-20T16:12:28.340Z,6.30
2018-12-20T16:14:56.816Z,6.20
2018-12-20T16:17:25.533Z,6.10
2018-12-20T16:19:53.926Z,6.10
2018-12-20T16:22:23.546Z,6.10
2018-12-20T16:24:52.030Z,6.00
2018-12-20T16:27:20.311Z,5.90
2018-12-20T16:29:48.793Z,5.80
2018-12-20T16:32:16.986Z,5.90
2018-12-20T16:34:45.558Z,6.00
2018-12-20T16:37:13.703Z,6.20
2018-12-20T16:39:42.527Z,6.40
2018-12-20T16:42:11.412Z,6.40
2018-12-20T16:44:39.600Z,6.50
2018-12-20T16:47:08.491Z,6.60
2018-12-20T16:49:36.813Z,6.70
2018-12-20T16:52:05.203Z,6.50
2018-12-20T16:54:33.485Z,6.50
2018-12-20T16:57:01.660Z,6.50
2018-12-20T16:59:29.841Z,6.30
2018-12-20T17:01:58.125Z,6.30
2018-12-20T17:04:26.480Z,6.20
2018-12-20T17:06:54.653Z,6.20
2018-12-20T17:09:23.072Z,6.30
2018-12-20T17:11:51.229Z,6.20
2018-12-20T17:14:19.573Z,6.20
2018-12-20T17:16:47.737Z,6.20
2018-12-20T17:19:22.141Z,6.40
2018-12-20T17:21:46.927Z,6.50
2018-12-20T17:24:15.545Z,6.60
2018-12-20T17:26:44.051Z,6.60
2018-12-20T17:29:12.337Z,6.60
2018-12-20T17:31:40.725Z,6.60
2018-12-20T17:34:08.966Z,6.60
2018-12-20T17:36:37.271Z,6.70
2018-12-20T17:39:07.527Z,6.70
2018-12-20T17:41:38.530Z,6.80
2018-12-20T17:44:08.939Z,6.80
2018-12-20T17:46:37.574Z,6.70
2018-12-20T17:49:06.023Z,6.70
2018-12-20T17:51:34.408Z,6.70
2018-12-20T17:54:02.905Z,5.70
2018-12-20T17:56:31.046Z,6.80
2018-12-20T17:58:59.415Z,6.70
2018-12-20T18:01:27.889Z,6.70
2018-12-20T18:03:55.985Z,6.70
2018-12-20T18:06:24.405Z,6.80
2018-12-20T18:08:53.495Z,6.70
2018-12-20T18:11:21.977Z,6.70
2018-12-20T18:13:50.123Z,6.60
2018-12-20T18:16:18.908Z,6.60
2018-12-20T18:18:48.050Z,6.60
2018-12-20T18:21:17.990Z,6.70
2018-12-20T18:23:48.674Z,6.80
2018-12-20T18:26:18.855Z,6.90
2018-12-20T18:28:49.068Z,6.90
2018-12-20T18:31:18.615Z,7.00
2018-12-20T18:33:48.368Z,6.90
2018-12-20T18:36:18.348Z,7.10
2018-12-20T18:38:48.411Z,7.00
2018-12-20T18:41:18.234Z,7.00
2018-12-20T18:43:49.291Z,7.00
2018-12-20T18:46:18.452Z,6.90
2018-12-20T18:48:46.856Z,6.80
2018-12-20T18:51:14.958Z,7.40
2018-12-20T18:53:43.079Z,6.70
2018-12-20T18:56:11.653Z,6.70
2018-12-20T18:58:40.353Z,6.80
2018-12-20T19:01:08.601Z,6.80
2018-12-20T19:03:37.286Z,6.80
2018-12-20T19:06:05.618Z,6.80
2018-12-20T19:08:34.297Z,6.80
2018-12-20T19:11:02.763Z,6.80
2018-12-20T19:13:31.111Z,6.70
2018-12-20T19:15:59.258Z,6.80
2018-12-20T19:18:27.716Z,6.80
2018-12-20T19:20:56.154Z,6.90
2018-12-20T19:23:24.711Z,7.00
2018-12-20T19:25:53.106Z,7.00
2018-12-20T19:28:22.029Z,7.00
2018-12-20T19:30:50.531Z,6.90
2018-12-20T19:33:18.819Z,6.80
2018-12-20T19:35:55.361Z,6.80
2018-12-20T19:38:28.003Z,6.70
2018-12-20T19:40:57.198Z,6.60
2018-12-20T19:43:26.631Z,6.70
2018-12-20T19:45:57.196Z,6.70
2018-12-20T19:48:26.635Z,6.70
2018-12-20T19:50:57.486Z,6.70
2018-12-20T19:53:30.364Z,6.70
2018-12-20T19:56:03.836Z,6.60
2018-12-20T19:58:37.267Z,6.60
2018-12-20T20:01:10.704Z,6.60
2018-12-20T20:03:43.522Z,6.60
2018-12-20T20:06:16.306Z,6.50
2018-12-20T20:08:48.173Z,6.40
2018-12-20T20:11:18.761Z,6.40
2018-12-20T20:13:52.412Z,6.50
2018-12-20T20:16:23.350Z,6.50
2018-12-20T20:18:53.509Z,6.60
2018-12-20T20:21:24.843Z,6.70
2018-12-20T20:23:55.542Z,6.70
2018-12-20T20:26:26.154Z,6.70
2018-12-20T20:28:55.600Z,6.70
2018-12-20T20:31:24.299Z,6.70
2018-12-20T20:33:53.035Z,6.70
2018-12-20T20:36:21.728Z,6.60
2018-12-20T20:38:50.250Z,6.60
2018-12-20T20:41:18.557Z,6.60
2018-12-20T20:43:46.790Z,6.80
2018-12-20T20:46:15.017Z,6.80
2018-12-20T20:48:43.205Z,6.60
2018-12-20T20:51:11.996Z,6.50
2018-12-20T20:53:40.323Z,6.40
2018-12-20T20:56:08.954Z,6.40
2018-12-20T20:58:37.731Z,6.40
2018-12-20T21:01:06.350Z,6.40
2018-12-20T21:03:34.742Z,6.40
2018-12-20T21:06:03.015Z,6.40
2018-12-20T21:08:31.807Z,6.40
2018-12-20T21:11:00.368Z,6.40
2018-12-20T21:13:28.898Z,6.30
2018-12-20T21:15:57.235Z,6.30
2018-12-20T21:18:26.520Z,6.20
2018-12-20T21:20:54.739Z,6.10
2018-12-20T21:23:23.427Z,6.10
2018-12-20T21:25:51.929Z,6.10
2018-12-20T21:28:20.285Z,6.00
2018-12-20T21:30:48.452Z,5.90
2018-12-20T21:33:16.867Z,6.00
2018-12-20T21:35:45.089Z,5.90
2018-12-20T21:38:13.280Z,5.90
2018-12-20T21:40:42.152Z,5.80
2018-12-20T21:43:10.689Z,5.80
2018-12-20T21:45:39.093Z,5.80
2018-12-20T21:48:07.753Z,5.90
2018-12-20T21:50:39.043Z,6.00
2018-12-20T21:53:06.694Z,6.00
2018-12-20T21:55:35.172Z,5.90
2018-12-20T21:58:03.662Z,5.90
2018-12-20T22:00:31.883Z,6.00
2018-12-20T22:03:00.059Z,5.90
2018-12-20T22:05:28.559Z,5.90
2018-12-20T22:07:56.665Z,5.90
2018-12-20T22:10:25.015Z,5.90
2018-12-20T22:12:53.400Z,6.00
2018-12-20T22:15:21.578Z,5.90
2018-12-20T22:17:49.999Z,5.90
2018-12-20T22:20:18.531Z,5.80
2018-12-20T22:22:47.309Z,5.80
2018-12-20T22:25:16.291Z,5.80
2018-12-20T22:27:44.939Z,5.90
2018-12-20T22:30:13.311Z,5.90
2018-12-20T22:32:41.798Z,5.90
2018-12-20T22:35:10.123Z,5.90
2018-12-20T22:37:38.343Z,5.80
2018-12-20T22:40:08.394Z,5.90
2018-12-20T22:42:36.525Z,6.00
2018-12-20T22:45:07.507Z,6.00
2018-12-20T22:47:35.632Z,6.00
2018-12-20T22:50:05.424Z,6.00
2018-12-20T22:52:33.620Z,6.20
2018-12-20T22:55:02.070Z,6.10
2018-12-20T22:57:30.625Z,6.10
2018-12-20T22:59:58.766Z,6.10
2018-12-20T23:02:27.466Z,6.10
2018-12-20T23:04:55.658Z,6.10
2018-12-20T23:07:23.808Z,6.20
2018-12-20T23:09:52.084Z,6.20
2018-12-20T23:12:22.301Z,6.30
2018-12-20T23:14:50.537Z,6.20
2018-12-20T23:17:19.160Z,6.30
2018-12-20T23:19:48.003Z,6.30
2018-12-20T23:22:16.809Z,6.40
2018-12-20T23:24:46.388Z,6.40
2018-12-20T23:27:15.424Z,6.40
2018-12-20T23:29:45.011Z,6.50
2018-12-20T23:32:13.241Z,6.40
2018-12-20T23:34:41.452Z,6.40
2018-12-20T23:37:09.909Z,6.30
2018-12-20T23:39:38.214Z,6.30
2018-12-20T23:42:06.367Z,6.30
2018-12-20T23:44:34.615Z,6.40
2018-12-20T23:47:03.350Z,6.40
2018-12-20T23:49:31.660Z,6.40
2018-12-20T23:51:59.957Z,6.40
2018-12-20T23:54:28.922Z,6.40
2018-12-20T23:56:57.910Z,6.40
2018-12-20T23:59:26.602Z,6.40
